Time;durP1;ratioP1;P1;durP2;ratioP2;P2;SDS_P1;SDS_P2;PMS_P1;PMS_P2;Temp;Humidity;BMP_temperature;BMP_pressure;BME280_temperature;BME280_humidity;BME280_pressure;Samples;Min_cycle;Max_cycle;Signal;HPM_P1;HPM_P2
2021/12/31 00:04:25;;;;;;;16.27;9.85;;;;;;;4.09;100.00;95323.59;10364049;28;20026;-76
2021/12/31 00:09:25;;;;;;;21.33;10.63;;;;;;;3.81;100.00;95324.00;10363635;28;20028;-75
2021/12/31 00:14:26;;;;;;;18.80;10.70;;;;;;;3.96;100.00;95329.00;10381898;28;20029;-75
2021/12/31 00:19:30;;;;;;;24.42;11.18;;;;;;;4.04;100.00;95342.84;10382456;28;20129;-73
2021/12/31 00:24:30;;;;;;;29.30;12.15;;;;;;;4.03;100.00;95356.34;10399446;28;20594;-74
2021/12/31 00:29:31;;;;;;;23.17;13.13;;;;;;;4.24;100.00;95334.72;10381006;28;20082;-71
2021/12/31 00:34:31;;;;;;;21.50;11.07;;;;;;;4.34;100.00;95338.69;10382706;28;20505;-70
2021/12/31 00:39:32;;;;;;;28.77;14.48;;;;;;;4.37;100.00;95343.63;10382791;28;20029;-71
2021/12/31 00:44:32;;;;;;;29.70;14.07;;;;;;;4.40;100.00;95354.63;10382470;28;20036;-73
2021/12/31 00:49:32;;;;;;;24.77;12.10;;;;;;;4.35;100.00;95354.44;10382727;28;20025;-70
2021/12/31 00:54:34;;;;;;;25.38;12.55;;;;;;;4.41;100.00;95331.47;10382759;28;20021;-72
2021/12/31 00:59:35;;;;;;;23.83;11.68;;;;;;;4.43;100.00;95316.91;10357430;28;20022;-71
2021/12/31 01:04:35;;;;;;;23.52;11.75;;;;;;;4.39;100.00;95320.25;10347309;28;20030;-70
2021/12/31 01:09:36;;;;;;;23.10;11.07;;;;;;;4.41;100.00;95328.81;10348058;28;20030;-70
2021/12/31 01:14:41;;;;;;;24.02;11.60;;;;;;;4.21;100.00;95323.69;10364878;28;20033;-72
2021/12/31 01:19:48;;;;;;;22.13;12.32;;;;;;;4.13;100.00;95318.63;10364246;28;20060;-71
2021/12/31 01:24:48;;;;;;;21.58;11.57;;;;;;;4.30;100.00;95326.88;10347044;28;20025;-72
2021/12/31 01:29:49;;;;;;;20.17;10.40;;;;;;;4.21;100.00;95336.97;10348109;28;20030;-69
2021/12/31 01:34:49;;;;;;;18.20;9.40;;;;;;;4.09;100.00;95343.00;10363662;28;20026;-71
2021/12/31 01:39:50;;;;;;;16.85;9.10;;;;;;;4.16;100.00;95350.94;10347886;28;20026;-69
2021/12/31 01:45:02;;;;;;;14.32;7.65;;;;;;;4.07;100.00;95341.59;10347620;28;20491;-73
2021/12/31 01:50:07;;;;;;;13.77;7.63;;;;;;;3.94;100.00;95338.00;10363289;28;20038;-72
2021/12/31 01:55:11;;;;;;;15.30;8.38;;;;;;;3.88;100.00;95354.84;10363217;28;20534;-70
2021/12/31 02:00:12;;;;;;;16.00;7.85;;;;;;;3.97;100.00;95358.03;10362892;28;20025;-77
2021/12/31 02:05:14;;;;;;;17.70;8.35;;;;;;;4.03;100.00;95367.84;10363042;28;20116;-75
2021/12/31 02:10:14;;;;;;;16.35;8.82;;;;;;;4.00;100.00;95364.78;10363918;28;20033;-71
2021/12/31 02:15:17;;;;;;;16.65;8.73;;;;;;;3.91;100.00;95361.56;10362836;28;20539;-72
2021/12/31 02:20:19;;;;;;;19.75;11.30;;;;;;;3.96;100.00;95361.72;10360924;28;20112;-71
2021/12/31 02:25:23;;;;;;;20.67;10.27;;;;;;;3.97;100.00;95375.84;10362341;28;20080;-71
2021/12/31 02:30:23;;;;;;;20.52;10.38;;;;;;;3.89;100.00;95369.78;10363015;28;20034;-70
2021/12/31 02:35:24;;;;;;;22.35;10.30;;;;;;;3.97;100.00;95366.03;10396102;28;20411;-71
2021/12/31 02:40:27;;;;;;;19.30;9.40;;;;;;;3.98;100.00;95364.16;10404040;28;20037;-71
2021/12/31 02:45:35;;;;;;;20.73;9.75;;;;;;;3.98;100.00;95357.03;10386246;28;20029;-74
2021/12/31 02:50:39;;;;;;;19.85;9.75;;;;;;;3.99;100.00;95365.81;10403400;28;20624;-72
2021/12/31 02:55:43;;;;;;;18.65;9.52;;;;;;;3.92;100.00;95376.47;10384839;28;20087;-74
2021/12/31 03:00:43;;;;;;;12.55;7.57;;;;;;;3.80;100.00;95389.66;10384871;28;20021;-71
2021/12/31 03:05:44;;;;;;;13.73;8.20;;;;;;;3.76;100.00;95388.47;10384605;28;20030;-71
2021/12/31 03:10:46;;;;;;;18.20;8.40;;;;;;;3.83;100.00;95394.53;10352059;28;20056;-74
2021/12/31 03:15:47;;;;;;;16.20;7.70;;;;;;;3.87;100.00;95398.41;10384781;28;20151;-71
2021/12/31 03:20:57;;;;;;;19.42;9.32;;;;;;;3.90;100.00;95402.47;10382349;28;20050;-73
2021/12/31 03:25:58;;;;;;;18.40;8.82;;;;;;;3.85;100.00;95415.59;10369623;28;20439;-77
2021/12/31 03:30:59;;;;;;;15.88;7.95;;;;;;;3.83;100.00;95413.16;10363330;28;20042;-72
2021/12/31 03:35:59;;;;;;;16.92;8.32;;;;;;;3.84;100.00;95420.13;10343136;28;20029;-70
2021/12/31 03:41:00;;;;;;;18.58;9.38;;;;;;;3.79;100.00;95427.91;10369555;28;20037;-70
2021/12/31 03:46:00;;;;;;;15.48;8.25;;;;;;;3.78;100.00;95426.25;10383654;28;20086;-73
2021/12/31 03:51:01;;;;;;;13.63;7.40;;;;;;;3.85;100.00;95429.72;10382830;28;20560;-72
2021/12/31 03:56:01;;;;;;;17.70;8.23;;;;;;;3.65;100.00;95431.66;10383717;28;20037;-73
2021/12/31 04:01:02;;;;;;;15.40;7.25;;;;;;;3.42;100.00;95444.44;10383482;28;20029;-77
2021/12/31 04:06:02;;;;;;;12.32;7.30;;;;;;;3.29;100.00;95438.34;10383296;28;20391;-77
2021/12/31 04:11:04;;;;;;;15.95;8.88;;;;;;;3.14;100.00;95441.25;10383704;28;20029;-73
2021/12/31 04:16:04;;;;;;;14.57;7.20;;;;;;;3.07;100.00;95436.78;10365355;28;20025;-72
2021/12/31 04:21:05;;;;;;;11.85;6.25;;;;;;;2.81;100.00;95435.00;10382342;28;20515;-72
2021/12/31 04:26:06;;;;;;;15.65;7.65;;;;;;;2.74;100.00;95431.56;10383390;28;20037;-74
2021/12/31 04:31:06;;;;;;;17.08;7.43;;;;;;;2.67;100.00;95422.78;10382904;28;20095;-75
2021/12/31 04:36:07;;;;;;;13.90;6.63;;;;;;;2.39;100.00;95445.03;10366093;28;20506;-73
2021/12/31 04:41:07;;;;;;;13.20;7.47;;;;;;;2.34;100.00;95445.63;10386391;28;20474;-71
2021/12/31 04:46:09;;;;;;;20.67;8.38;;;;;;;2.44;100.00;95450.53;10408876;28;20029;-75
2021/12/31 04:51:09;;;;;;;15.20;7.25;;;;;;;2.29;100.00;95465.84;10369635;28;20025;-69
2021/12/31 04:56:10;;;;;;;19.48;8.63;;;;;;;2.18;100.00;95454.03;10375671;28;20033;-71
2021/12/31 05:01:10;;;;;;;19.67;9.00;;;;;;;1.96;100.00;95459.47;10388569;28;20464;-69
2021/12/31 05:06:11;;;;;;;17.45;7.97;;;;;;;2.05;100.00;95455.63;10390793;28;20133;-73
2021/12/31 05:11:11;;;;;;;20.42;8.68;;;;;;;2.02;100.00;95449.91;10363618;28;20061;-73
2021/12/31 05:16:12;;;;;;;24.23;8.75;;;;;;;2.07;100.00;95463.38;10397978;28;20037;-74
2021/12/31 05:21:12;;;;;;;21.02;9.52;;;;;;;2.21;100.00;95467.66;10347755;28;20048;-74
2021/12/31 05:26:12;;;;;;;18.33;8.27;;;;;;;2.21;100.00;95459.72;10348124;28;20072;-74
2021/12/31 05:31:13;;;;;;;16.65;8.32;;;;;;;2.13;100.00;95459.09;10365853;28;20033;-73
2021/12/31 05:36:13;;;;;;;22.27;9.95;;;;;;;2.11;100.00;95469.91;10366415;28;20037;-78
2021/12/31 05:41:14;;;;;;;23.95;9.27;;;;;;;2.21;100.00;95459.72;10388010;28;20032;-73
2021/12/31 05:46:14;;;;;;;20.60;9.15;;;;;;;2.23;100.00;95464.81;10388671;28;20033;-78
2021/12/31 05:51:15;;;;;;;18.35;9.20;;;;;;;2.27;100.00;95466.03;10378481;28;20037;-74
2021/12/31 05:56:17;;;;;;;19.45;7.90;;;;;;;2.28;100.00;95472.19;10364630;28;20121;-72
2021/12/31 06:01:17;;;;;;;17.33;10.60;;;;;;;2.36;100.00;95480.75;10367600;28;20029;-76
2021/12/31 06:06:17;;;;;;;15.15;7.43;;;;;;;2.43;100.00;95487.88;10387688;28;20049;-76
2021/12/31 06:11:18;;;;;;;14.60;7.45;;;;;;;2.18;100.00;95496.44;10389459;28;20091;-73
2021/12/31 06:16:19;;;;;;;17.70;9.25;;;;;;;2.28;100.00;95496.84;10388328;28;20025;-77
2021/12/31 06:21:19;;;;;;;17.23;9.80;;;;;;;2.38;100.00;95497.25;10487690;22;20061;-74
2021/12/31 06:26:19;;;;;;;12.52;7.78;;;;;;;2.52;100.00;95498.09;10387464;28;20471;-77
2021/12/31 06:31:21;;;;;;;19.23;8.02;;;;;;;2.73;100.00;95496.25;10386591;28;20021;-76
2021/12/31 06:36:22;;;;;;;15.52;8.23;;;;;;;2.90;100.00;95507.28;10404007;28;20503;-71
2021/12/31 06:41:22;;;;;;;19.63;8.55;;;;;;;2.75;100.00;95518.13;10386319;28;20033;-76
2021/12/31 06:46:23;;;;;;;11.05;6.53;;;;;;;3.04;100.00;95510.72;10385654;28;20606;-76
2021/12/31 06:51:23;;;;;;;14.27;7.80;;;;;;;3.14;100.00;95521.78;10403375;28;20550;-71
2021/12/31 06:56:24;;;;;;;15.10;7.43;;;;;;;3.43;100.00;95514.31;10368946;28;20044;-76
2021/12/31 07:01:24;;;;;;;15.55;7.72;;;;;;;3.72;100.00;95497.06;10345143;28;20053;-77
2021/12/31 07:06:25;;;;;;;15.30;7.88;;;;;;;3.95;100.00;95503.72;10345378;28;20030;-77
2021/12/31 07:11:25;;;;;;;17.13;7.72;;;;;;;4.28;100.00;95506.19;10359307;28;20030;-74
2021/12/31 07:16:25;;;;;;;20.83;10.52;;;;;;;4.55;100.00;95507.84;10360723;28;20486;-75
2021/12/31 07:21:26;;;;;;;16.67;8.02;;;;;;;4.52;100.00;95518.94;10384853;28;20507;-80
2021/12/31 07:26:26;;;;;;;14.02;7.00;;;;;;;4.86;100.00;95506.19;10368084;28;20041;-80
2021/12/31 07:31:27;;;;;;;17.83;8.68;;;;;;;5.23;100.00;95509.75;10384499;28;20171;-73
2021/12/31 07:36:29;;;;;;;14.93;7.25;;;;;;;5.43;100.00;95498.06;10385243;28;20094;-79
2021/12/31 07:41:29;;;;;;;20.02;8.90;;;;;;;5.65;100.00;95499.25;10383456;28;20533;-77
2021/12/31 07:46:30;;;;;;;14.40;7.63;;;;;;;5.80;100.00;95498.03;10383098;28;20029;-73
2021/12/31 07:51:31;;;;;;;16.95;7.75;;;;;;;5.80;100.00;95514.88;10383420;28;20021;-81
2021/12/31 07:56:32;;;;;;;14.98;8.32;;;;;;;5.40;100.00;95511.81;10383054;28;20103;-75
2021/12/31 08:01:32;;;;;;;20.23;8.75;;;;;;;5.44;100.00;95518.34;10384671;28;20040;-79
2021/12/31 08:06:33;;;;;;;20.25;8.48;;;;;;;5.60;100.00;95512.44;10369037;28;20129;-79
2021/12/31 08:11:33;;;;;;;16.83;8.68;;;;;;;5.73;100.00;95524.78;10383400;28;20041;-74
2021/12/31 08:16:33;;;;;;;20.17;9.65;;;;;;;5.87;100.00;95517.44;10400645;28;20033;-77
2021/12/31 08:21:34;;;;;;;21.33;9.75;;;;;;;5.89;100.00;95523.38;10382760;28;20102;-73
2021/12/31 08:26:35;;;;;;;22.90;10.77;;;;;;;5.92;100.00;95524.78;10400181;28;20049;-74
2021/12/31 08:31:35;;;;;;;21.02;11.13;;;;;;;6.01;100.00;95523.47;10358454;28;20068;-76
2021/12/31 08:36:36;;;;;;;24.35;11.70;;;;;;;6.51;100.00;95522.38;10343044;28;20041;-76
2021/12/31 08:41:40;;;;;;;28.55;11.88;;;;;;;7.01;100.00;95505.97;10342748;28;20029;-73
2021/12/31 08:46:41;;;;;;;20.60;10.43;;;;;;;7.45;100.00;95500.31;10341821;28;20137;-76
2021/12/31 08:51:42;;;;;;;27.05;11.48;;;;;;;7.76;100.00;95502.78;10341304;28;20028;-78
2021/12/31 08:56:43;;;;;;;25.88;12.70;;;;;;;8.12;100.00;95493.63;10357652;28;20040;-71
2021/12/31 09:01:44;;;;;;;26.83;11.80;;;;;;;8.54;100.00;95492.53;10344782;28;20056;-72
2021/12/31 09:06:44;;;;;;;23.02;9.55;;;;;;;8.71;100.00;95474.59;10380175;28;20024;-71
2021/12/31 09:11:45;;;;;;;17.42;8.85;;;;;;;8.96;100.00;95469.88;10481077;23;20055;-72
2021/12/31 09:16:46;;;;;;;19.40;9.02;;;;;;;9.26;100.00;95463.38;10405344;28;20051;-72
2021/12/31 09:21:47;;;;;;;20.27;9.13;;;;;;;9.85;100.00;95465.47;10407761;28;20048;-74
2021/12/31 09:26:47;;;;;;;14.38;7.97;;;;;;;10.29;100.00;95459.25;10422657;28;20115;-75
2021/12/31 09:31:48;;;;;;;13.52;7.25;;;;;;;10.65;96.70;95454.25;10429682;28;20040;-79
2021/12/31 09:36:48;;;;;;;17.35;8.20;;;;;;;11.36;94.84;95464.72;10446895;28;20051;-77
2021/12/31 09:41:49;;;;;;;14.07;7.35;;;;;;;11.55;86.48;95445.44;10429741;28;20115;-75
2021/12/31 09:46:50;;;;;;;15.70;8.23;;;;;;;11.59;85.12;95449.22;10447385;28;20028;-71
2021/12/31 09:51:51;;;;;;;14.68;6.97;;;;;;;11.96;81.40;95434.88;10386898;28;20021;-72
2021/12/31 09:56:51;;;;;;;19.08;7.55;;;;;;;11.63;79.74;95434.16;10404048;28;20654;-74
2021/12/31 10:01:52;;;;;;;15.45;7.00;;;;;;;11.93;77.16;95436.19;10402355;28;20024;-73
2021/12/31 10:07:10;;;;;;;12.98;6.35;;;;;;;14.26;63.69;95417.88;10403369;28;20033;-77
2021/12/31 10:12:11;;;;;;;17.33;7.57;;;;;;;17.19;52.74;95408.34;10386142;28;20041;-73
2021/12/31 10:17:11;;;;;;;18.70;6.80;;;;;;;19.77;44.10;95387.88;10403342;28;20051;-75
2021/12/31 10:22:18;;;;;;;10.07;5.47;;;;;;;21.39;39.87;95377.19;10403183;28;20645;-73
2021/12/31 10:27:20;;;;;;;14.57;6.50;;;;;;;22.93;36.69;95365.97;10404576;28;20029;-77
2021/12/31 10:32:22;;;;;;;13.25;6.43;;;;;;;22.45;37.12;95359.13;10386160;28;20044;-76
2021/12/31 10:37:26;;;;;;;11.77;5.85;;;;;;;24.15;33.87;95339.06;10401367;28;20030;-72
2021/12/31 10:42:29;;;;;;;10.75;6.10;;;;;;;24.06;34.08;95341.16;10384768;28;20032;-77
2021/12/31 10:47:35;;;;;;;8.95;5.47;;;;;;;23.38;35.77;95326.03;10384116;28;20036;-77
2021/12/31 10:52:54;;;;;;;8.75;4.20;;;;;;;20.90;38.47;95323.59;10385404;28;20029;-74
2021/12/31 10:58:01;;;;;;;9.35;4.90;;;;;;;21.98;37.17;95316.28;10387062;28;20413;-73
2021/12/31 11:03:02;;;;;;;9.57;4.65;;;;;;;20.21;40.85;95333.44;10343323;28;20099;-75
2021/12/31 11:08:06;;;;;;;9.23;3.92;;;;;;;18.84;43.84;95326.81;10361063;28;20057;-78
2021/12/31 11:13:20;;;;;;;6.75;3.75;;;;;;;18.84;44.41;95342.34;10360159;28;20053;-71
2021/12/31 11:18:24;;;;;;;11.40;3.20;;;;;;;18.93;46.14;95333.13;10361874;28;20053;-77
2021/12/31 11:23:27;;;;;;;10.07;4.13;;;;;;;18.43;47.94;95339.50;10360028;28;20518;-77
2021/12/31 11:28:30;;;;;;;9.30;3.55;;;;;;;20.68;42.70;95332.00;10359772;28;20090;-76
2021/12/31 11:33:31;;;;;;;6.75;3.10;;;;;;;21.62;40.09;95332.06;10343446;28;20448;-72
2021/12/31 11:38:31;;;;;;;10.45;3.38;;;;;;;22.70;38.76;95324.44;10359929;28;20071;-72
2021/12/31 11:43:32;;;;;;;7.47;3.57;;;;;;;21.22;40.36;95335.09;10343039;28;20034;-73
2021/12/31 11:48:48;;;;;;;9.77;3.83;;;;;;;18.37;45.66;95339.94;10358884;28;20536;-71
2021/12/31 11:54:01;;;;;;;8.43;3.97;;;;;;;15.77;54.27;95333.13;10342818;28;20117;-75
2021/12/31 11:59:07;;;;;;;14.10;4.15;;;;;;;14.51;64.40;95342.00;10362718;28;20025;-73
2021/12/31 12:04:18;;;;;;;8.75;3.53;;;;;;;13.27;80.04;95331.06;10401721;28;20021;-77
2021/12/31 12:09:23;;;;;;;8.35;3.58;;;;;;;12.43;90.23;95339.56;10401542;28;20507;-74
2021/12/31 12:14:45;;;;;;;11.38;7.03;;;;;;;11.80;99.48;95340.53;10401162;28;20424;-75
2021/12/31 12:19:51;;;;;;;12.82;5.20;;;;;;;11.48;100.00;95334.50;10397743;28;20030;-77
2021/12/31 12:24:53;;;;;;;8.77;4.63;;;;;;;11.20;100.00;95337.34;10400643;28;20061;-79
2021/12/31 12:29:55;;;;;;;10.55;5.40;;;;;;;11.17;100.00;95329.81;10398973;28;20025;-74
2021/12/31 12:34:56;;;;;;;12.73;5.28;;;;;;;11.04;100.00;95330.28;10399160;28;20104;-73
2021/12/31 12:40:02;;;;;;;15.43;5.22;;;;;;;10.95;100.00;95329.94;10398569;28;20029;-74
2021/12/31 12:45:05;;;;;;;16.30;5.05;;;;;;;10.82;100.00;95327.75;10366541;28;20029;-77
2021/12/31 12:50:09;;;;;;;15.13;5.68;;;;;;;10.75;100.00;95331.44;10400446;28;20026;-73
2021/12/31 12:55:15;;;;;;;15.05;4.72;;;;;;;10.92;100.00;95320.53;10397084;28;20507;-73
2021/12/31 13:00:16;;;;;;;14.45;4.88;;;;;;;10.89;100.00;95322.94;10401074;28;20036;-76
2021/12/31 13:05:17;;;;;;;12.25;4.78;;;;;;;10.70;100.00;95331.44;10389989;28;20018;-77
2021/12/31 13:10:23;;;;;;;13.75;5.85;;;;;;;10.76;100.00;95321.53;10387993;28;20617;-72
2021/12/31 13:15:24;;;;;;;8.48;4.32;;;;;;;10.56;100.00;95332.94;10389773;28;20036;-75
2021/12/31 13:20:26;;;;;;;11.60;5.28;;;;;;;10.15;100.00;95327.22;10389116;28;20030;-73
2021/12/31 13:25:42;;;;;;;9.25;4.80;;;;;;;10.01;100.00;95322.25;10405671;28;20017;-78
2021/12/31 13:31:09;;;;;;;16.40;5.57;;;;;;;9.97;100.00;95313.09;10405691;28;20118;-73
2021/12/31 13:36:27;;;;;;;13.30;4.88;;;;;;;10.05;100.00;95311.84;10405240;28;20064;-74
2021/12/31 13:41:28;;;;;;;13.52;4.63;;;;;;;10.18;100.00;95303.34;10404833;28;20029;-75
2021/12/31 13:46:37;;;;;;;7.78;3.90;;;;;;;10.25;100.00;95320.03;10404929;28;20065;-77
2021/12/31 13:51:41;;;;;;;6.95;3.80;;;;;;;10.30;100.00;95316.59;10386135;28;20072;-73
2021/12/31 13:56:47;;;;;;;13.00;4.03;;;;;;;10.19;100.00;95313.03;10404156;28;20091;-75
2021/12/31 14:02:08;;;;;;;10.00;4.18;;;;;;;10.39;100.00;95315.06;10387067;28;20025;-75
2021/12/31 14:07:16;;;;;;;11.75;4.78;;;;;;;10.35;100.00;95323.91;10371641;28;20037;-72
2021/12/31 14:12:17;;;;;;;16.67;5.47;;;;;;;10.03;100.00;95325.53;10358155;28;20038;-76
2021/12/31 14:17:17;;;;;;;29.85;10.05;;;;;;;9.96;100.00;95322.22;10344927;28;20694;-75
2021/12/31 14:22:18;;;;;;;11.65;6.22;;;;;;;10.00;100.00;95320.63;10352432;28;20010;-77
2021/12/31 14:27:18;;;;;;;291.13;94.50;;;;;;;9.91;100.00;95301.50;10386690;28;20063;-79
2021/12/31 14:32:19;;;;;;;18.73;11.10;;;;;;;9.83;100.00;95290.41;10386153;28;20021;-71
2021/12/31 14:37:19;;;;;;;13.23;6.20;;;;;;;9.71;100.00;95304.81;10364632;28;20133;-71
2021/12/31 14:42:28;;;;;;;12.57;5.55;;;;;;;9.79;100.00;95308.91;10343903;28;20507;-74
2021/12/31 14:47:29;;;;;;;15.95;5.97;;;;;;;9.88;100.00;95303.91;10366399;28;20017;-77
2021/12/31 14:52:30;;;;;;;10.63;5.15;;;;;;;9.95;100.00;95303.66;10401713;28;20029;-77
2021/12/31 14:57:30;;;;;;;9.93;4.90;;;;;;;9.91;100.00;95316.81;10400229;28;20500;-78
2021/12/31 15:02:31;;;;;;;8.30;4.60;;;;;;;9.90;100.00;95315.97;10400807;28;20108;-78
2021/12/31 15:07:32;;;;;;;10.63;6.18;;;;;;;9.92;100.00;95319.25;10384441;28;20029;-77
2021/12/31 15:12:32;;;;;;;8.52;5.60;;;;;;;9.95;100.00;95307.19;10384258;28;20494;-76
2021/12/31 15:17:33;;;;;;;13.15;7.32;;;;;;;10.00;100.00;95315.25;10384571;28;20056;-73
2021/12/31 15:22:34;;;;;;;14.57;5.78;;;;;;;9.98;100.00;95320.09;10383715;28;20029;-71
2021/12/31 15:27:38;;;;;;;14.23;5.72;;;;;;;10.01;100.00;95319.56;10382723;28;20110;-77
2021/12/31 15:32:38;;;;;;;16.83;6.45;;;;;;;10.14;100.00;95314.84;10365787;28;20025;-76
2021/12/31 15:37:38;;;;;;;10.80;5.95;;;;;;;10.21;100.00;95315.44;10341877;28;20026;-79
2021/12/31 15:42:39;;;;;;;11.82;5.53;;;;;;;10.25;100.00;95313.88;10341937;28;20022;-81
2021/12/31 15:47:40;;;;;;;12.82;6.38;;;;;;;10.21;100.00;95310.91;10468651;23;20431;-73
2021/12/31 15:52:42;;;;;;;10.88;5.82;;;;;;;10.15;100.00;95317.28;10465289;28;20028;-78
2021/12/31 15:57:44;;;;;;;12.38;5.72;;;;;;;10.09;100.00;95305.69;10466134;28;20475;-80
2021/12/31 16:02:44;;;;;;;16.77;5.05;;;;;;;10.03;100.00;95314.78;10454869;28;20024;-76
2021/12/31 16:12:51;;;;;;;9.10;5.15;;;;;;;9.99;100.00;95320.88;10397368;28;20082;-77
2021/12/31 16:17:51;;;;;;;13.00;6.18;;;;;;;9.83;100.00;95315.38;10380087;28;20045;-75
2021/12/31 16:22:53;;;;;;;8.60;4.90;;;;;;;9.74;100.00;95308.88;10360062;28;20083;-77
2021/12/31 16:27:55;;;;;;;7.28;4.25;;;;;;;9.58;100.00;95307.88;10358418;28;20029;-76
2021/12/31 16:32:55;;;;;;;10.80;4.07;;;;;;;9.40;100.00;95309.88;10373795;28;20038;-76
2021/12/31 16:37:56;;;;;;;7.60;3.75;;;;;;;9.37;100.00;95310.34;10397062;28;20366;-77
2021/12/31 16:42:56;;;;;;;9.70;4.68;;;;;;;9.22;100.00;95315.53;10404440;28;20542;-78
2021/12/31 16:47:57;;;;;;;7.93;3.92;;;;;;;9.14;100.00;95330.19;10397148;28;20076;-73
2021/12/31 16:52:57;;;;;;;11.90;5.60;;;;;;;9.02;100.00;95335.66;10423639;28;20128;-77
2021/12/31 16:57:57;;;;;;;10.95;4.45;;;;;;;8.94;100.00;95330.72;10407046;28;20479;-75
2021/12/31 17:02:59;;;;;;;11.13;4.10;;;;;;;8.85;100.00;95334.91;10429664;28;20490;-75
2021/12/31 17:08:01;;;;;;;9.38;4.05;;;;;;;8.76;100.00;95331.03;10421540;28;20045;-77
2021/12/31 17:13:06;;;;;;;10.70;4.93;;;;;;;8.64;100.00;95339.97;10420649;28;20479;-73
2021/12/31 17:18:08;;;;;;;16.75;7.97;;;;;;;8.61;100.00;95343.16;10389590;28;20133;-76
2021/12/31 17:23:09;;;;;;;11.75;5.10;;;;;;;8.65;100.00;95348.81;10422038;28;20033;-79
2021/12/31 17:28:11;;;;;;;14.38;6.53;;;;;;;8.60;100.00;95349.56;10420315;28;20491;-76
2021/12/31 17:33:12;;;;;;;15.63;7.38;;;;;;;8.63;100.00;95357.09;10420732;28;20111;-77
2021/12/31 17:38:12;;;;;;;15.43;8.18;;;;;;;8.51;100.00;95361.72;10405041;28;20110;-76
2021/12/31 17:43:13;;;;;;;21.27;9.23;;;;;;;8.42;100.00;95363.19;10419516;28;20071;-76
2021/12/31 17:48:13;;;;;;;23.27;10.32;;;;;;;8.50;100.00;95363.59;10402759;28;20060;-78
2021/12/31 17:53:14;;;;;;;23.95;10.75;;;;;;;8.54;100.00;95363.94;10438788;28;20859;-75
2021/12/31 17:58:16;;;;;;;18.23;9.35;;;;;;;8.63;100.00;95350.94;10443320;28;20035;-78
2021/12/31 18:03:17;;;;;;;13.82;7.50;;;;;;;8.75;100.00;95346.31;10445930;28;20025;-72
2021/12/31 18:08:17;;;;;;;16.17;6.85;;;;;;;8.75;100.00;95340.94;10420256;28;20057;-73
2021/12/31 18:13:18;;;;;;;14.02;5.70;;;;;;;8.73;100.00;95345.72;10443055;28;20025;-78
2021/12/31 18:18:18;;;;;;;7.65;4.25;;;;;;;8.76;100.00;95336.38;10427235;28;20025;-77
2021/12/31 18:23:19;;;;;;;8.23;4.28;;;;;;;8.84;100.00;95330.59;10419422;28;20120;-78
2021/12/31 18:28:20;;;;;;;6.68;3.22;;;;;;;8.89;100.00;95339.53;10387418;28;20029;-78
2021/12/31 18:33:20;;;;;;;8.32;3.50;;;;;;;8.84;100.00;95330.59;10402603;28;20528;-80
2021/12/31 18:38:21;;;;;;;13.90;5.07;;;;;;;8.75;100.00;95329.38;10402213;28;20026;-76
2021/12/31 18:43:21;;;;;;;7.93;3.65;;;;;;;8.72;100.00;95331.53;10409923;28;20018;-76
2021/12/31 18:48:22;;;;;;;9.50;4.28;;;;;;;8.64;100.00;95329.25;10417703;28;20069;-74
2021/12/31 18:53:22;;;;;;;20.55;6.40;;;;;;;8.58;100.00;95327.53;10421015;28;20040;-75
2021/12/31 18:58:26;;;;;;;19.05;9.43;;;;;;;8.38;100.00;95326.16;10444182;28;20024;-77
2021/12/31 19:03:26;;;;;;;16.15;8.23;;;;;;;8.24;100.00;95330.22;10441384;28;20040;-73
2021/12/31 19:08:27;;;;;;;12.73;6.90;;;;;;;8.16;100.00;95326.09;10440662;28;20061;-77
2021/12/31 19:13:29;;;;;;;11.55;6.45;;;;;;;8.10;100.00;95326.25;10443037;28;20049;-79
2021/12/31 19:18:30;;;;;;;19.15;10.07;;;;;;;8.11;100.00;95330.56;10426900;28;20037;-74
2021/12/31 19:23:32;;;;;;;21.80;10.77;;;;;;;8.02;100.00;95327.44;10445319;28;20028;-75
2021/12/31 19:28:33;;;;;;;29.23;12.95;;;;;;;7.91;100.00;95323.81;10434914;28;20025;-76
2021/12/31 19:33:34;;;;;;;36.67;15.48;;;;;;;7.77;100.00;95319.78;10420604;28;20029;-77
2021/12/31 19:38:34;;;;;;;36.75;18.70;;;;;;;7.51;100.00;95332.72;10383213;28;20510;-79
2021/12/31 19:43:35;;;;;;;60.13;25.33;;;;;;;7.32;100.00;95340.91;10400692;28;20028;-75
2021/12/31 19:48:35;;;;;;;199.82;101.43;;;;;;;7.06;100.00;95342.28;10415183;28;20079;-77
2021/12/31 19:53:36;;;;;;;60.22;29.70;;;;;;;6.96;100.00;95342.03;10410234;28;20461;-76
2021/12/31 19:58:38;;;;;;;52.40;26.40;;;;;;;6.87;100.00;95346.13;10441325;28;20025;-74
2021/12/31 20:03:38;;;;;;;59.83;28.58;;;;;;;6.77;100.00;95338.72;10411635;28;20468;-76
2021/12/31 20:08:39;;;;;;;59.05;26.13;;;;;;;6.63;100.00;95341.63;10398968;28;20049;-75
2021/12/31 20:13:40;;;;;;;81.35;37.10;;;;;;;6.54;100.00;95334.19;10399652;28;20029;-76
2021/12/31 20:18:40;;;;;;;74.63;37.53;;;;;;;6.39;100.00;95326.63;10415073;28;20113;-73
2021/12/31 20:23:41;;;;;;;63.10;29.52;;;;;;;6.26;100.00;95331.16;10415482;28;20108;-71
2021/12/31 20:28:43;;;;;;;64.18;29.30;;;;;;;6.23;100.00;95334.28;10413427;28;20108;-73
2021/12/31 20:33:44;;;;;;;67.85;29.75;;;;;;;6.19;100.00;95338.47;10449419;28;20049;-71
2021/12/31 20:38:44;;;;;;;58.75;28.15;;;;;;;6.09;100.00;95332.88;10438815;28;20135;-74
2021/12/31 20:43:45;;;;;;;63.58;28.35;;;;;;;6.05;100.00;95324.50;10440448;28;20451;-77
2021/12/31 20:48:45;;;;;;;58.05;26.30;;;;;;;6.05;100.00;95313.03;10439165;28;20059;-74
2021/12/31 20:53:46;;;;;;;66.80;27.25;;;;;;;5.98;100.00;95307.81;10438802;28;20017;-75
2021/12/31 20:58:46;;;;;;;59.85;27.08;;;;;;;5.88;100.00;95312.88;10438553;28;20033;-72
2021/12/31 21:03:47;;;;;;;78.88;33.13;;;;;;;5.92;100.00;95320.19;10415631;28;20029;-76
2021/12/31 21:08:49;;;;;;;76.82;33.70;;;;;;;5.80;100.00;95314.84;10414836;28;20056;-76
2021/12/31 21:13:49;;;;;;;70.00;30.98;;;;;;;5.71;100.00;95313.53;10397461;28;20501;-72
2021/12/31 21:18:50;;;;;;;68.22;30.67;;;;;;;5.71;100.00;95302.84;10413076;28;20029;-75
2021/12/31 21:23:52;;;;;;;61.63;28.40;;;;;;;5.64;100.00;95299.47;10425743;28;20037;-75
2021/12/31 21:28:53;;;;;;;70.20;29.73;;;;;;;5.62;100.00;95297.03;10446293;28;20036;-72
2021/12/31 21:33:53;;;;;;;41.88;20.20;;;;;;;5.64;100.00;95296.81;10444455;28;20517;-74
2021/12/31 21:38:53;;;;;;;52.08;23.13;;;;;;;5.54;100.00;95286.69;10444961;28;20091;-72
2021/12/31 21:43:54;;;;;;;46.15;19.95;;;;;;;5.51;100.00;95289.78;10446332;28;20035;-72
2021/12/31 21:48:54;;;;;;;46.35;20.42;;;;;;;5.54;100.00;95288.53;10445269;28;20099;-74
2021/12/31 21:53:55;;;;;;;30.10;16.15;;;;;;;5.45;100.00;95280.06;10443804;28;20029;-72
2021/12/31 21:58:57;;;;;;;32.38;16.27;;;;;;;5.51;100.00;95281.81;10445121;28;20025;-76
2021/12/31 22:03:57;;;;;;;108.30;55.22;;;;;;;5.51;100.00;95287.13;10443714;28;20036;-74
2021/12/31 22:08:58;;;;;;;213.93;103.95;;;;;;;5.45;100.00;95288.06;10444171;28;20403;-72
2021/12/31 22:13:58;;;;;;;135.73;66.15;;;;;;;5.35;100.00;95277.13;10445718;28;20462;-74
2021/12/31 22:18:58;;;;;;;134.63;67.03;;;;;;;5.35;100.00;95277.94;10444279;28;20028;-72
2021/12/31 22:23:59;;;;;;;127.60;59.05;;;;;;;5.28;100.00;95280.69;10444148;28;20119;-70
2021/12/31 22:28:59;;;;;;;133.38;61.55;;;;;;;5.34;100.00;95276.31;10445146;28;20029;-77
2021/12/31 22:34:00;;;;;;;220.77;105.65;;;;;;;5.22;100.00;95270.13;10425340;28;20415;-71
2021/12/31 22:39:02;;;;;;;181.20;89.78;;;;;;;5.12;100.00;95268.81;10437476;28;20524;-73
2021/12/31 22:44:04;;;;;;;111.93;50.97;;;;;;;5.14;100.00;95265.94;10443534;28;20048;-70
2021/12/31 22:49:05;;;;;;;107.63;47.58;;;;;;;5.09;100.00;95250.63;10451387;28;20037;-73
2021/12/31 22:54:05;;;;;;;98.10;45.83;;;;;;;5.17;100.00;95241.50;10439674;28;20068;-74
2021/12/31 22:59:06;;;;;;;123.10;54.63;;;;;;;5.29;100.00;95231.69;10442531;28;20024;-74
2021/12/31 23:04:06;;;;;;;138.23;60.58;;;;;;;5.23;100.00;95221.13;10442117;28;20036;-73
2021/12/31 23:09:08;;;;;;;94.55;44.15;;;;;;;5.24;100.00;95231.53;10443007;28;20057;-73